PWSweather.com
Personal Weather Stations
Station Observations
BARMORENO
El Ranal, Torre Del CampoES 23640

El RanalTorre Del CampoES 23640

Lat: 37.7683675, Lon: -3.9027072

Elevation: 2198.162

Station Type: PCE-FWS 20

http://www.bartolomemoreno.com/tiempo

High Low Average
Temperature 90.5°F32.5°C 68.2°F20.1°C 80.0°F26.7°C
Dew Point 55.5°F13.1°C 37.9°F3.3°C 47.2°F8.4°C
Winds 7.2 mph 11.6 kmh 0.1 mph 0.2 kmh 4.0 mph WSW6.4 kmh WSW
Wind Gusts 23.5 mph37.8 kmh 1.6 mph2.6 kmh 9.0 mph14.5 kmh
Humidity 49% 20% 33%
Pressure 30.17 in1021.7 mb 30.08 in1018.6 mb -
Precipitation 0.00 in0.0 mm - -
Hour Temp Dew Point Humidity Winds Wind Gusts Pressure Precip Precip Rate Daily Precip Total
12:00 AM 79.3°F26.3°C 38.4°F3.6°C 23% 2.9 mph WSW4.7 kmh WSW 6.9 mph11.1 kmh 30.16 in1021.3 mb 0.00 in0.0 mm 0.00 in0.0 mm 0.00 in0.0 mm
12:05 AM 79.2°F26.2°C 38.2°F3.4°C 23% 2.8 mph W4.5 kmh W 6.9 mph11.1 kmh 30.17 in1021.7 mb 0.00 in0.0 mm 0.00 in0.0 mm 0.00 in0.0 mm
12:10 AM 79.0°F26.1°C 38.1°F3.4°C 23% 2.5 mph W4.0 kmh W 6.0 mph9.7 kmh 30.17 in1021.7 mb 0.00 in0.0 mm 0.00 in0.0 mm 0.00 in0.0 mm
12:15 AM 78.6°F25.9°C 38.8°F3.8°C 24% 2.0 mph WNW3.2 kmh WNW 6.0 mph9.7 kmh 30.17 in1021.7 mb 0.00 in0.0 mm 0.00 in0.0 mm 0.00 in0.0 mm
12:20 AM 77.9°F25.5°C 38.2°F3.4°C 24% 2.2 mph W3.5 kmh W 6.0 mph9.7 kmh 30.17 in1021.7 mb 0.00 in0.0 mm 0.00 in0.0 mm 0.00 in0.0 mm
12:25 AM 77.5°F25.3°C 37.9°F3.3°C 24% 2.3 mph W3.7 kmh W 6.0 mph9.7 kmh 30.17 in1021.7 mb 0.00 in0.0 mm 0.00 in0.0 mm 0.00 in0.0 mm
12:30 AM 77.2°F25.1°C 38.7°F3.7°C 25% 2.5 mph W4.0 kmh W 5.4 mph8.7 kmh 30.17 in1021.7 mb 0.00 in0.0 mm 0.00 in0.0 mm 0.00 in0.0 mm
12:35 AM 76.6°F24.8°C 40.2°F4.6°C 27% 2.7 mph WSW4.3 kmh WSW 5.4 mph8.7 kmh 30.17 in1021.7 mb 0.00 in0.0 mm 0.00 in0.0 mm 0.00 in0.0 mm
12:40 AM 76.1°F24.5°C 39.7°F4.3°C 27% 3.4 mph SW5.5 kmh SW 7.6 mph12.2 kmh 30.16 in1021.3 mb 0.00 in0.0 mm 0.00 in0.0 mm 0.00 in0.0 mm
12:45 AM 75.7°F24.3°C 40.4°F4.7°C 28% 4.2 mph SW6.8 kmh SW 7.6 mph12.2 kmh 30.17 in1021.7 mb 0.00 in0.0 mm 0.00 in0.0 mm 0.00 in0.0 mm
12:50 AM 75.6°F24.2°C 40.2°F4.6°C 28% 4.2 mph SW6.8 kmh SW 7.6 mph12.2 kmh 30.16 in1021.3 mb 0.00 in0.0 mm 0.00 in0.0 mm 0.00 in0.0 mm
12:55 AM 75.4°F24.1°C 40.9°F4.9°C 29% 4.0 mph SW6.4 kmh SW 6.9 mph11.1 kmh 30.16 in1021.3 mb 0.00 in0.0 mm 0.00 in0.0 mm 0.00 in0.0 mm
01:00 AM 75.2°F24.0°C 41.7°F5.4°C 30% 3.6 mph SW5.8 kmh SW 6.9 mph11.1 kmh 30.16 in1021.3 mb 0.00 in0.0 mm 0.00 in0.0 mm 0.00 in0.0 mm
01:05 AM 75.2°F24.0°C 41.7°F5.4°C 30% 3.6 mph WSW5.8 kmh WSW 6.9 mph11.1 kmh 30.16 in1021.3 mb 0.00 in0.0 mm 0.00 in0.0 mm 0.00 in0.0 mm
01:10 AM 75.2°F24.0°C 44.9°F7.2°C 34% 3.7 mph W6.0 kmh W 6.0 mph9.7 kmh 30.16 in1021.3 mb 0.00 in0.0 mm 0.00 in0.0 mm 0.00 in0.0 mm
01:15 AM 75.0°F23.9°C 46.3°F7.9°C 36% 4.0 mph WSW6.4 kmh WSW 6.9 mph11.1 kmh 30.16 in1021.3 mb 0.00 in0.0 mm 0.00 in0.0 mm 0.00 in0.0 mm
01:20 AM 74.8°F23.8°C 46.1°F7.8°C 36% 4.4 mph SW7.1 kmh SW 6.9 mph11.1 kmh 30.16 in1021.3 mb 0.00 in0.0 mm 0.00 in0.0 mm 0.00 in0.0 mm
01:25 AM 74.8°F23.8°C 46.9°F8.3°C 37% 4.3 mph SW6.9 kmh SW 7.6 mph12.2 kmh 30.16 in1021.3 mb 0.00 in0.0 mm 0.00 in0.0 mm 0.00 in0.0 mm
01:30 AM 74.7°F23.7°C 47.4°F8.6°C 38% 4.9 mph SW7.9 kmh SW 8.3 mph13.4 kmh 30.16 in1021.3 mb 0.00 in0.0 mm 0.00 in0.0 mm 0.00 in0.0 mm
01:35 AM 74.5°F23.6°C 48.6°F9.2°C 40% 5.3 mph SW8.5 kmh SW 9.2 mph14.8 kmh 30.16 in1021.3 mb 0.00 in0.0 mm 0.00 in0.0 mm 0.00 in0.0 mm
01:40 AM 74.5°F23.6°C 49.3°F9.6°C 41% 5.6 mph SW9.0 kmh SW 9.8 mph15.8 kmh 30.16 in1021.3 mb 0.00 in0.0 mm 0.00 in0.0 mm 0.00 in0.0 mm
01:45 AM 74.5°F23.6°C 49.9°F9.9°C 42% 5.8 mph SW9.3 kmh SW 9.8 mph15.8 kmh 30.16 in1021.3 mb 0.00 in0.0 mm 0.00 in0.0 mm 0.00 in0.0 mm
01:50 AM 74.5°F23.6°C 49.3°F9.6°C 41% 5.5 mph SW8.9 kmh SW 9.2 mph14.8 kmh 30.16 in1021.3 mb 0.00 in0.0 mm 0.00 in0.0 mm 0.00 in0.0 mm
01:55 AM 74.7°F23.7°C 49.4°F9.7°C 41% 4.8 mph SW7.7 kmh SW 9.2 mph14.8 kmh 30.16 in1021.3 mb 0.00 in0.0 mm 0.00 in0.0 mm 0.00 in0.0 mm
02:00 AM 75.0°F23.9°C 49.8°F9.9°C 41% 4.1 mph SSW6.6 kmh SSW 7.6 mph12.2 kmh 30.16 in1021.3 mb 0.00 in0.0 mm 0.00 in0.0 mm 0.00 in0.0 mm
02:05 AM 75.2°F24.0°C 48.6°F9.2°C 39% 3.4 mph SSW5.5 kmh SSW 7.6 mph12.2 kmh 30.16 in1021.3 mb 0.00 in0.0 mm 0.00 in0.0 mm 0.00 in0.0 mm
02:10 AM 75.2°F24.0°C 48.6°F9.2°C 39% 3.0 mph SW4.8 kmh SW 6.0 mph9.7 kmh 30.16 in1021.3 mb 0.00 in0.0 mm 0.00 in0.0 mm 0.00 in0.0 mm
02:15 AM 75.2°F24.0°C 47.9°F8.8°C 38% 3.2 mph SW5.1 kmh SW 6.9 mph11.1 kmh 30.16 in1021.3 mb 0.00 in0.0 mm 0.00 in0.0 mm 0.00 in0.0 mm
02:20 AM 75.0°F23.9°C 47.7°F8.7°C 38% 3.3 mph SW5.3 kmh SW 7.6 mph12.2 kmh 30.16 in1021.3 mb 0.00 in0.0 mm 0.00 in0.0 mm 0.00 in0.0 mm
02:25 AM 75.0°F23.9°C 47.0°F8.3°C 37% 2.7 mph WSW4.3 kmh WSW 7.6 mph12.2 kmh 30.15 in1021.0 mb 0.00 in0.0 mm 0.00 in0.0 mm 0.00 in0.0 mm
02:30 AM 75.0°F23.9°C 47.0°F8.3°C 37% 1.1 mph WSW1.8 kmh WSW 4.5 mph7.2 kmh 30.15 in1021.0 mb 0.00 in0.0 mm 0.00 in0.0 mm 0.00 in0.0 mm
02:35 AM 74.7°F23.7°C 46.7°F8.2°C 37% 0.5 mph WSW0.8 kmh WSW 3.1 mph5.0 kmh 30.15 in1021.0 mb 0.00 in0.0 mm 0.00 in0.0 mm 0.00 in0.0 mm
02:40 AM 74.3°F23.5°C 46.4°F8.0°C 37% 1.4 mph SW2.3 kmh SW 3.8 mph6.1 kmh 30.14 in1020.7 mb 0.00 in0.0 mm 0.00 in0.0 mm 0.00 in0.0 mm
02:45 AM 74.1°F23.4°C 46.9°F8.3°C 38% 2.7 mph SW4.3 kmh SW 6.9 mph11.1 kmh 30.15 in1021.0 mb 0.00 in0.0 mm 0.00 in0.0 mm 0.00 in0.0 mm
02:50 AM 74.5°F23.6°C 47.2°F8.4°C 38% 3.3 mph SSW5.3 kmh SSW 7.6 mph12.2 kmh 30.15 in1021.0 mb 0.00 in0.0 mm 0.00 in0.0 mm 0.00 in0.0 mm
02:55 AM 74.3°F23.5°C 46.4°F8.0°C 37% 3.4 mph SW5.5 kmh SW 7.6 mph12.2 kmh 30.15 in1021.0 mb 0.00 in0.0 mm 0.00 in0.0 mm 0.00 in0.0 mm
03:00 AM 74.1°F23.4°C 46.2°F7.9°C 37% 4.1 mph SW6.6 kmh SW 7.6 mph12.2 kmh 30.15 in1021.0 mb 0.00 in0.0 mm 0.00 in0.0 mm 0.00 in0.0 mm
03:05 AM 74.1°F23.4°C 46.2°F7.9°C 37% 4.5 mph SW7.2 kmh SW 7.6 mph12.2 kmh 30.15 in1021.0 mb 0.00 in0.0 mm 0.00 in0.0 mm 0.00 in0.0 mm
03:10 AM 73.9°F23.3°C 46.1°F7.8°C 37% 4.4 mph SW7.1 kmh SW 6.9 mph11.1 kmh 30.15 in1021.0 mb 0.00 in0.0 mm 0.00 in0.0 mm 0.00 in0.0 mm
03:15 AM 73.9°F23.3°C 45.3°F7.4°C 36% 4.0 mph WSW6.4 kmh WSW 6.9 mph11.1 kmh 30.15 in1021.0 mb 0.00 in0.0 mm 0.00 in0.0 mm 0.00 in0.0 mm
03:20 AM 73.9°F23.3°C 45.3°F7.4°C 36% 3.3 mph SW5.3 kmh SW 5.4 mph8.7 kmh 30.14 in1020.7 mb 0.00 in0.0 mm 0.00 in0.0 mm 0.00 in0.0 mm
03:25 AM 73.9°F23.3°C 45.3°F7.4°C 36% 2.7 mph SW4.3 kmh SW 5.4 mph8.7 kmh 30.14 in1020.7 mb 0.00 in0.0 mm 0.00 in0.0 mm 0.00 in0.0 mm
03:30 AM 74.1°F23.4°C 45.5°F7.5°C 36% 2.4 mph SW3.9 kmh SW 5.4 mph8.7 kmh 30.14 in1020.7 mb 0.00 in0.0 mm 0.00 in0.0 mm 0.00 in0.0 mm
03:35 AM 74.1°F23.4°C 45.5°F7.5°C 36% 2.1 mph SW3.4 kmh SW 3.8 mph6.1 kmh 30.14 in1020.7 mb 0.00 in0.0 mm 0.00 in0.0 mm 0.00 in0.0 mm
03:40 AM 73.9°F23.3°C 45.3°F7.4°C 36% 1.2 mph SW1.9 kmh SW 3.8 mph6.1 kmh 30.14 in1020.7 mb 0.00 in0.0 mm 0.00 in0.0 mm 0.00 in0.0 mm
03:45 AM 73.6°F23.1°C 45.0°F7.2°C 36% 0.4 mph SW0.6 kmh SW 3.1 mph5.0 kmh 30.14 in1020.7 mb 0.00 in0.0 mm 0.00 in0.0 mm 0.00 in0.0 mm
03:50 AM 73.0°F22.8°C 43.8°F6.6°C 35% 0.9 mph SSW1.4 kmh SSW 3.8 mph6.1 kmh 30.14 in1020.7 mb 0.00 in0.0 mm 0.00 in0.0 mm 0.00 in0.0 mm
03:55 AM 72.5°F22.5°C 44.1°F6.7°C 36% 0.9 mph S1.4 kmh S 3.8 mph6.1 kmh 30.14 in1020.7 mb 0.00 in0.0 mm 0.00 in0.0 mm 0.00 in0.0 mm
04:00 AM 72.1°F22.3°C 44.5°F6.9°C 37% 0.2 mph ENE0.3 kmh ENE 1.6 mph2.6 kmh 30.14 in1020.7 mb 0.00 in0.0 mm 0.00 in0.0 mm 0.00 in0.0 mm
04:05 AM 71.8°F22.1°C 44.1°F6.7°C 37% 0.1 mph ESE0.2 kmh ESE 1.6 mph2.6 kmh 30.14 in1020.7 mb 0.00 in0.0 mm 0.00 in0.0 mm 0.00 in0.0 mm
04:10 AM 71.4°F21.9°C 43.8°F6.6°C 37% 0.9 mph SE1.4 kmh SE 3.1 mph5.0 kmh 30.14 in1020.7 mb 0.00 in0.0 mm 0.00 in0.0 mm 0.00 in0.0 mm
04:15 AM 71.2°F21.8°C 43.7°F6.5°C 37% 1.1 mph SSE1.8 kmh SSE 3.1 mph5.0 kmh 30.14 in1020.7 mb 0.00 in0.0 mm 0.00 in0.0 mm 0.00 in0.0 mm
04:20 AM 71.1°F21.7°C 43.5°F6.4°C 37% 0.4 mph SSE0.6 kmh SSE 3.8 mph6.1 kmh 30.14 in1020.7 mb 0.00 in0.0 mm 0.00 in0.0 mm 0.00 in0.0 mm
04:25 AM 71.1°F21.7°C 43.5°F6.4°C 37% 1.5 mph SSE2.4 kmh SSE 6.0 mph9.7 kmh 30.14 in1020.7 mb 0.00 in0.0 mm 0.00 in0.0 mm 0.00 in0.0 mm
04:30 AM 70.9°F21.6°C 43.3°F6.3°C 37% 3.6 mph S5.8 kmh S 8.3 mph13.4 kmh 30.13 in1020.3 mb 0.00 in0.0 mm 0.00 in0.0 mm 0.00 in0.0 mm
04:35 AM 70.9°F21.6°C 43.3°F6.3°C 37% 4.4 mph S7.1 kmh S 8.3 mph13.4 kmh 30.13 in1020.3 mb 0.00 in0.0 mm 0.00 in0.0 mm 0.00 in0.0 mm
04:40 AM 71.2°F21.8°C 43.7°F6.5°C 37% 4.3 mph S6.9 kmh S 8.3 mph13.4 kmh 30.13 in1020.3 mb 0.00 in0.0 mm 0.00 in0.0 mm 0.00 in0.0 mm
04:45 AM 71.4°F21.9°C 43.8°F6.6°C 37% 2.8 mph SSE4.5 kmh SSE 8.3 mph13.4 kmh 30.13 in1020.3 mb 0.00 in0.0 mm 0.00 in0.0 mm 0.00 in0.0 mm
04:50 AM 71.2°F21.8°C 43.7°F6.5°C 37% 0.8 mph S1.3 kmh S 4.5 mph7.2 kmh 30.14 in1020.7 mb 0.00 in0.0 mm 0.00 in0.0 mm 0.00 in0.0 mm
04:55 AM 71.1°F21.7°C 44.2°F6.8°C 38% 0.3 mph SW0.5 kmh SW 2.2 mph3.5 kmh 30.13 in1020.3 mb 0.00 in0.0 mm 0.00 in0.0 mm 0.00 in0.0 mm
05:00 AM 70.9°F21.6°C 44.7°F7.1°C 39% 0.3 mph S0.5 kmh S 2.2 mph3.5 kmh 30.13 in1020.3 mb 0.00 in0.0 mm 0.00 in0.0 mm 0.00 in0.0 mm
05:05 AM 70.9°F21.6°C 44.7°F7.1°C 39% 0.1 mph SE0.2 kmh SE 2.2 mph3.5 kmh 30.14 in1020.7 mb 0.00 in0.0 mm 0.00 in0.0 mm 0.00 in0.0 mm
05:10 AM 70.5°F21.4°C 45.1°F7.3°C 40% 0.2 mph WNW0.3 kmh WNW 2.2 mph3.5 kmh 30.14 in1020.7 mb 0.00 in0.0 mm 0.00 in0.0 mm 0.00 in0.0 mm
05:15 AM 70.5°F21.4°C 45.7°F7.6°C 41% 0.8 mph NW1.3 kmh NW 3.1 mph5.0 kmh 30.14 in1020.7 mb 0.00 in0.0 mm 0.00 in0.0 mm 0.00 in0.0 mm
05:20 AM 70.5°F21.4°C 46.3°F7.9°C 42% 0.9 mph W1.4 kmh W 3.1 mph5.0 kmh 30.14 in1020.7 mb 0.00 in0.0 mm 0.00 in0.0 mm 0.00 in0.0 mm
05:25 AM 70.3°F21.3°C 46.2°F7.9°C 42% 0.7 mph SW1.1 kmh SW 3.1 mph5.0 kmh 30.14 in1020.7 mb 0.00 in0.0 mm 0.00 in0.0 mm 0.00 in0.0 mm
05:30 AM 70.0°F21.1°C 45.9°F7.7°C 42% 0.9 mph SW1.4 kmh SW 3.8 mph6.1 kmh 30.14 in1020.7 mb 0.00 in0.0 mm 0.00 in0.0 mm 0.00 in0.0 mm
05:35 AM 70.0°F21.1°C 45.9°F7.7°C 42% 1.6 mph WSW2.6 kmh WSW 5.4 mph8.7 kmh 30.14 in1020.7 mb 0.00 in0.0 mm 0.00 in0.0 mm 0.00 in0.0 mm
05:40 AM 70.0°F21.1°C 45.9°F7.7°C 42% 1.8 mph WSW2.9 kmh WSW 5.4 mph8.7 kmh 30.14 in1020.7 mb 0.00 in0.0 mm 0.00 in0.0 mm 0.00 in0.0 mm
05:45 AM 69.3°F20.7°C 45.2°F7.3°C 42% 1.6 mph S2.6 kmh S 3.8 mph6.1 kmh 30.14 in1020.7 mb 0.00 in0.0 mm 0.00 in0.0 mm 0.00 in0.0 mm
05:50 AM 68.7°F20.4°C 45.3°F7.4°C 43% 1.5 mph SE2.4 kmh SE 3.8 mph6.1 kmh 30.14 in1020.7 mb 0.00 in0.0 mm 0.00 in0.0 mm 0.00 in0.0 mm
05:55 AM 68.5°F20.3°C 45.2°F7.3°C 43% 0.8 mph SE1.3 kmh SE 3.1 mph5.0 kmh 30.14 in1020.7 mb 0.00 in0.0 mm 0.00 in0.0 mm 0.00 in0.0 mm
06:00 AM 68.4°F20.2°C 45.0°F7.2°C 43% 0.4 mph SE0.6 kmh SE 2.2 mph3.5 kmh 30.13 in1020.3 mb 0.00 in0.0 mm 0.00 in0.0 mm 0.00 in0.0 mm
06:05 AM 68.4°F20.2°C 45.6°F7.6°C 44% 0.3 mph NE0.5 kmh NE 2.2 mph3.5 kmh 30.13 in1020.3 mb 0.00 in0.0 mm 0.00 in0.0 mm 0.00 in0.0 mm
06:10 AM 68.4°F20.2°C 45.6°F7.6°C 44% 1.2 mph N1.9 kmh N 3.8 mph6.1 kmh 30.13 in1020.3 mb 0.00 in0.0 mm 0.00 in0.0 mm 0.00 in0.0 mm
06:15 AM 68.4°F20.2°C 45.6°F7.6°C 44% 1.8 mph NNW2.9 kmh NNW 4.5 mph7.2 kmh 30.13 in1020.3 mb 0.00 in0.0 mm 0.00 in0.0 mm 0.00 in0.0 mm
06:20 AM 68.2°F20.1°C 46.1°F7.8°C 45% 2.4 mph NW3.9 kmh NW 7.6 mph12.2 kmh 30.13 in1020.3 mb 0.00 in0.0 mm 0.00 in0.0 mm 0.00 in0.0 mm
06:25 AM 68.5°F20.3°C 47.0°F8.3°C 46% 2.9 mph WNW4.7 kmh WNW 7.6 mph12.2 kmh 30.13 in1020.3 mb 0.00 in0.0 mm 0.00 in0.0 mm 0.00 in0.0 mm
06:30 AM 68.5°F20.3°C 47.5°F8.6°C 47% 2.8 mph W4.5 kmh W 7.6 mph12.2 kmh 30.13 in1020.3 mb 0.00 in0.0 mm 0.00 in0.0 mm 0.00 in0.0 mm
06:35 AM 68.7°F20.4°C 47.7°F8.7°C 47% 2.6 mph W4.2 kmh W 6.9 mph11.1 kmh 30.14 in1020.7 mb 0.00 in0.0 mm 0.00 in0.0 mm 0.00 in0.0 mm
06:40 AM 68.7°F20.4°C 47.7°F8.7°C 47% 2.9 mph WSW4.7 kmh WSW 6.9 mph11.1 kmh 30.14 in1020.7 mb 0.00 in0.0 mm 0.00 in0.0 mm 0.00 in0.0 mm
06:45 AM 68.9°F20.5°C 47.9°F8.8°C 47% 3.2 mph WSW5.1 kmh WSW 7.6 mph12.2 kmh 30.14 in1020.7 mb 0.00 in0.0 mm 0.00 in0.0 mm 0.00 in0.0 mm
06:50 AM 69.1°F20.6°C 48.6°F9.2°C 48% 3.0 mph SW4.8 kmh SW 8.3 mph13.4 kmh 30.14 in1020.7 mb 0.00 in0.0 mm 0.00 in0.0 mm 0.00 in0.0 mm
06:55 AM 69.3°F20.7°C 48.8°F9.3°C 48% 3.5 mph WSW5.6 kmh WSW 8.3 mph13.4 kmh 30.14 in1020.7 mb 0.00 in0.0 mm 0.00 in0.0 mm 0.00 in0.0 mm
07:00 AM 69.3°F20.7°C 49.3°F9.6°C 49% 3.6 mph W5.8 kmh W 8.3 mph13.4 kmh 30.15 in1021.0 mb 0.00 in0.0 mm 0.00 in0.0 mm 0.00 in0.0 mm
07:05 AM 69.6°F20.9°C 49.1°F9.5°C 48% 3.0 mph W4.8 kmh W 6.0 mph9.7 kmh 30.14 in1020.7 mb 0.00 in0.0 mm 0.00 in0.0 mm 0.00 in0.0 mm
07:10 AM 70.0°F21.1°C 48.9°F9.4°C 47% 2.9 mph W4.7 kmh W 6.0 mph9.7 kmh 30.14 in1020.7 mb 0.00 in0.0 mm 0.00 in0.0 mm 0.00 in0.0 mm
07:15 AM 70.3°F21.3°C 48.6°F9.2°C 46% 2.3 mph W3.7 kmh W 6.0 mph9.7 kmh 30.14 in1020.7 mb 0.00 in0.0 mm 0.00 in0.0 mm 0.00 in0.0 mm
07:20 AM 70.9°F21.6°C 49.1°F9.5°C 46% 1.4 mph SW2.3 kmh SW 4.5 mph7.2 kmh 30.14 in1020.7 mb 0.00 in0.0 mm 0.00 in0.0 mm 0.00 in0.0 mm
07:25 AM 71.4°F21.9°C 49.6°F9.8°C 46% 0.9 mph S1.4 kmh S 4.5 mph7.2 kmh 30.14 in1020.7 mb 0.00 in0.0 mm 0.00 in0.0 mm 0.00 in0.0 mm
07:30 AM 71.6°F22.0°C 49.2°F9.6°C 45% 1.3 mph NW2.1 kmh NW 4.5 mph7.2 kmh 30.14 in1020.7 mb 0.00 in0.0 mm 0.00 in0.0 mm 0.00 in0.0 mm
07:35 AM 71.4°F21.9°C 49.6°F9.8°C 46% 1.7 mph N2.7 kmh N 4.5 mph7.2 kmh 30.14 in1020.7 mb 0.00 in0.0 mm 0.00 in0.0 mm 0.00 in0.0 mm
07:40 AM 71.6°F22.0°C 49.2°F9.6°C 45% 1.2 mph N1.9 kmh N 3.8 mph6.1 kmh 30.14 in1020.7 mb 0.00 in0.0 mm 0.00 in0.0 mm 0.00 in0.0 mm
07:45 AM 71.8°F22.1°C 49.3°F9.6°C 45% 1.6 mph NNW2.6 kmh NNW 4.5 mph7.2 kmh 30.15 in1021.0 mb 0.00 in0.0 mm 0.00 in0.0 mm 0.00 in0.0 mm
07:50 AM 71.6°F22.0°C 49.2°F9.6°C 45% 2.3 mph NNW3.7 kmh NNW 4.5 mph7.2 kmh 30.15 in1021.0 mb 0.00 in0.0 mm 0.00 in0.0 mm 0.00 in0.0 mm
07:55 AM 72.0°F22.2°C 50.1°F10.1°C 46% 1.7 mph NW2.7 kmh NW 4.5 mph7.2 kmh 30.15 in1021.0 mb 0.00 in0.0 mm 0.00 in0.0 mm 0.00 in0.0 mm
08:00 AM 72.5°F22.5°C 50.6°F10.3°C 46% 1.3 mph NW2.1 kmh NW 4.5 mph7.2 kmh 30.15 in1021.0 mb 0.00 in0.0 mm 0.00 in0.0 mm 0.00 in0.0 mm
08:05 AM 73.0°F22.8°C 50.5°F10.3°C 45% 1.7 mph WNW2.7 kmh WNW 5.4 mph8.7 kmh 30.15 in1021.0 mb 0.00 in0.0 mm 0.00 in0.0 mm 0.00 in0.0 mm
08:10 AM 73.6°F23.1°C 51.6°F10.9°C 46% 2.0 mph NW3.2 kmh NW 5.4 mph8.7 kmh 30.15 in1021.0 mb 0.00 in0.0 mm 0.00 in0.0 mm 0.00 in0.0 mm
08:15 AM 73.8°F23.2°C 52.3°F11.3°C 47% 1.7 mph NW2.7 kmh NW 3.8 mph6.1 kmh 30.15 in1021.0 mb 0.00 in0.0 mm 0.00 in0.0 mm 0.00 in0.0 mm
08:20 AM 74.3°F23.5°C 52.2°F11.2°C 46% 1.5 mph SE2.4 kmh SE 5.4 mph8.7 kmh 30.15 in1021.0 mb 0.00 in0.0 mm 0.00 in0.0 mm 0.00 in0.0 mm
08:25 AM 74.8°F23.8°C 52.7°F11.5°C 46% 1.6 mph N2.6 kmh N 5.4 mph8.7 kmh 30.16 in1021.3 mb 0.00 in0.0 mm 0.00 in0.0 mm 0.00 in0.0 mm
08:30 AM 75.2°F24.0°C 52.4°F11.3°C 45% 1.7 mph W2.7 kmh W 4.5 mph7.2 kmh 30.16 in1021.3 mb 0.00 in0.0 mm 0.00 in0.0 mm 0.00 in0.0 mm
08:40 AM 75.7°F24.3°C 52.3°F11.3°C 44% 3.0 mph NW4.8 kmh NW 6.0 mph9.7 kmh 30.16 in1021.3 mb 0.00 in0.0 mm 0.00 in0.0 mm 0.00 in0.0 mm
08:45 AM 75.9°F24.4°C 52.5°F11.4°C 44% 2.8 mph NW4.5 kmh NW 6.9 mph11.1 kmh 30.16 in1021.3 mb 0.00 in0.0 mm 0.00 in0.0 mm 0.00 in0.0 mm
08:50 AM 76.3°F24.6°C 52.2°F11.2°C 43% 2.3 mph WNW3.7 kmh WNW 6.9 mph11.1 kmh 30.16 in1021.3 mb 0.00 in0.0 mm 0.00 in0.0 mm 0.00 in0.0 mm
08:55 AM 76.6°F24.8°C 51.2°F10.7°C 41% 2.1 mph N3.4 kmh N 6.9 mph11.1 kmh 30.16 in1021.3 mb 0.00 in0.0 mm 0.00 in0.0 mm 0.00 in0.0 mm
09:00 AM 76.8°F24.9°C 50.7°F10.4°C 40% 2.2 mph ENE3.5 kmh ENE 6.9 mph11.1 kmh 30.16 in1021.3 mb 0.00 in0.0 mm 0.00 in0.0 mm 0.00 in0.0 mm
09:05 AM 76.8°F24.9°C 50.7°F10.4°C 40% 2.7 mph E4.3 kmh E 6.0 mph9.7 kmh 30.16 in1021.3 mb 0.00 in0.0 mm 0.00 in0.0 mm 0.00 in0.0 mm
09:10 AM 77.4°F25.2°C 49.8°F9.9°C 38% 2.9 mph E4.7 kmh E 5.4 mph8.7 kmh 30.16 in1021.3 mb 0.00 in0.0 mm 0.00 in0.0 mm 0.00 in0.0 mm
09:15 AM 77.4°F25.2°C 49.8°F9.9°C 38% 2.9 mph N4.7 kmh N 6.9 mph11.1 kmh 30.16 in1021.3 mb 0.00 in0.0 mm 0.00 in0.0 mm 0.00 in0.0 mm
09:20 AM 77.4°F25.2°C 50.5°F10.3°C 39% 3.0 mph N4.8 kmh N 6.9 mph11.1 kmh 30.16 in1021.3 mb 0.00 in0.0 mm 0.00 in0.0 mm 0.00 in0.0 mm
09:25 AM 77.4°F25.2°C 50.5°F10.3°C 39% 2.7 mph N4.3 kmh N 6.0 mph9.7 kmh 30.16 in1021.3 mb 0.00 in0.0 mm 0.00 in0.0 mm 0.00 in0.0 mm
09:30 AM 78.4°F25.8°C 51.5°F10.8°C 39% 2.4 mph W3.9 kmh W 6.0 mph9.7 kmh 30.16 in1021.3 mb 0.00 in0.0 mm 0.00 in0.0 mm 0.00 in0.0 mm
09:35 AM 78.3°F25.7°C 51.3°F10.7°C 39% 2.9 mph NW4.7 kmh NW 7.6 mph12.2 kmh 30.16 in1021.3 mb 0.00 in0.0 mm 0.00 in0.0 mm 0.00 in0.0 mm
09:40 AM 77.7°F25.4°C 51.5°F10.8°C 40% 3.5 mph NW5.6 kmh NW 7.6 mph12.2 kmh 30.16 in1021.3 mb 0.00 in0.0 mm 0.00 in0.0 mm 0.00 in0.0 mm
09:45 AM 77.7°F25.4°C 52.8°F11.6°C 42% 4.5 mph N7.2 kmh N 10.7 mph17.2 kmh 30.16 in1021.3 mb 0.00 in0.0 mm 0.00 in0.0 mm 0.00 in0.0 mm
09:50 AM 77.4°F25.2°C 53.2°F11.8°C 43% 4.7 mph N7.6 kmh N 10.7 mph17.2 kmh 30.16 in1021.3 mb 0.00 in0.0 mm 0.00 in0.0 mm 0.00 in0.0 mm
09:55 AM 77.4°F25.2°C 53.2°F11.8°C 43% 4.1 mph N6.6 kmh N 8.3 mph13.4 kmh 30.16 in1021.3 mb 0.00 in0.0 mm 0.00 in0.0 mm 0.00 in0.0 mm
10:00 AM 77.7°F25.4°C 53.5°F11.9°C 43% 4.4 mph N7.1 kmh N 9.2 mph14.8 kmh 30.16 in1021.3 mb 0.00 in0.0 mm 0.00 in0.0 mm 0.00 in0.0 mm
10:05 AM 77.7°F25.4°C 53.5°F11.9°C 43% 4.6 mph N7.4 kmh N 9.8 mph15.8 kmh 30.16 in1021.3 mb 0.00 in0.0 mm 0.00 in0.0 mm 0.00 in0.0 mm
10:10 AM 78.6°F25.9°C 54.3°F12.4°C 43% 3.8 mph NNE6.1 kmh NNE 9.8 mph15.8 kmh 30.16 in1021.3 mb 0.00 in0.0 mm 0.00 in0.0 mm 0.00 in0.0 mm
10:15 AM 79.5°F26.4°C 52.4°F11.3°C 39% 2.9 mph NNE4.7 kmh NNE 7.6 mph12.2 kmh 30.16 in1021.3 mb 0.00 in0.0 mm 0.00 in0.0 mm 0.00 in0.0 mm
10:20 AM 80.2°F26.8°C 51.6°F10.9°C 37% 2.8 mph NW4.5 kmh NW 7.6 mph12.2 kmh 30.16 in1021.3 mb 0.00 in0.0 mm 0.00 in0.0 mm 0.00 in0.0 mm
10:25 AM 80.2°F26.8°C 51.6°F10.9°C 37% 3.3 mph NNW5.3 kmh NNW 9.2 mph14.8 kmh 30.16 in1021.3 mb 0.00 in0.0 mm 0.00 in0.0 mm 0.00 in0.0 mm
10:30 AM 80.8°F27.1°C 51.4°F10.8°C 36% 3.3 mph NNW5.3 kmh NNW 9.2 mph14.8 kmh 30.16 in1021.3 mb 0.00 in0.0 mm 0.00 in0.0 mm 0.00 in0.0 mm
10:35 AM 81.5°F27.5°C 51.3°F10.7°C 35% 2.9 mph NW4.7 kmh NW 5.4 mph8.7 kmh 30.16 in1021.3 mb 0.00 in0.0 mm 0.00 in0.0 mm 0.00 in0.0 mm
10:40 AM 82.0°F27.8°C 51.7°F10.9°C 35% 2.2 mph W3.5 kmh W 5.4 mph8.7 kmh 30.16 in1021.3 mb 0.00 in0.0 mm 0.00 in0.0 mm 0.00 in0.0 mm
10:45 AM 82.2°F27.9°C 50.3°F10.2°C 33% 1.9 mph NW3.1 kmh NW 5.4 mph8.7 kmh 30.16 in1021.3 mb 0.00 in0.0 mm 0.00 in0.0 mm 0.00 in0.0 mm
10:50 AM 82.0°F27.8°C 50.9°F10.5°C 34% 3.0 mph N4.8 kmh N 8.3 mph13.4 kmh 30.16 in1021.3 mb 0.00 in0.0 mm 0.00 in0.0 mm 0.00 in0.0 mm
10:55 AM 80.8°F27.1°C 51.4°F10.8°C 36% 5.7 mph N9.2 kmh N 14.5 mph23.3 kmh 30.16 in1021.3 mb 0.00 in0.0 mm 0.00 in0.0 mm 0.00 in0.0 mm
11:00 AM 80.4°F26.9°C 51.1°F10.6°C 36% 6.7 mph N10.8 kmh N 14.5 mph23.3 kmh 30.16 in1021.3 mb 0.00 in0.0 mm 0.00 in0.0 mm 0.00 in0.0 mm
11:05 AM 80.4°F26.9°C 51.1°F10.6°C 36% 4.5 mph NNW7.2 kmh NNW 11.4 mph18.3 kmh 30.16 in1021.3 mb 0.00 in0.0 mm 0.00 in0.0 mm 0.00 in0.0 mm
11:10 AM 81.1°F27.3°C 51.7°F10.9°C 36% 3.8 mph NW6.1 kmh NW 10.7 mph17.2 kmh 30.16 in1021.3 mb 0.00 in0.0 mm 0.00 in0.0 mm 0.00 in0.0 mm
11:15 AM 80.8°F27.1°C 50.6°F10.3°C 35% 5.4 mph NNW8.7 kmh NNW 13.0 mph20.9 kmh 30.16 in1021.3 mb 0.00 in0.0 mm 0.00 in0.0 mm 0.00 in0.0 mm
11:20 AM 80.6°F27.0°C 49.7°F9.8°C 34% 5.8 mph N9.3 kmh N 13.0 mph20.9 kmh 30.16 in1021.3 mb 0.00 in0.0 mm 0.00 in0.0 mm 0.00 in0.0 mm
11:25 AM 81.1°F27.3°C 50.2°F10.1°C 34% 5.4 mph N8.7 kmh N 13.6 mph21.9 kmh 30.16 in1021.3 mb 0.00 in0.0 mm 0.00 in0.0 mm 0.00 in0.0 mm
11:30 AM 81.1°F27.3°C 50.2°F10.1°C 34% 4.6 mph N7.4 kmh N 13.6 mph21.9 kmh 30.16 in1021.3 mb 0.00 in0.0 mm 0.00 in0.0 mm 0.00 in0.0 mm
11:35 AM 81.1°F27.3°C 50.2°F10.1°C 34% 4.6 mph N7.4 kmh N 10.7 mph17.2 kmh 30.16 in1021.3 mb 0.00 in0.0 mm 0.00 in0.0 mm 0.00 in0.0 mm
11:40 AM 81.5°F27.5°C 49.7°F9.8°C 33% 4.1 mph NW6.6 kmh NW 8.3 mph13.4 kmh 30.16 in1021.3 mb 0.00 in0.0 mm 0.00 in0.0 mm 0.00 in0.0 mm
11:45 AM 82.2°F27.9°C 50.3°F10.2°C 33% 3.4 mph NW5.5 kmh NW 9.2 mph14.8 kmh 30.16 in1021.3 mb 0.00 in0.0 mm 0.00 in0.0 mm 0.00 in0.0 mm
11:50 AM 82.2°F27.9°C 50.3°F10.2°C 33% 3.6 mph NW5.8 kmh NW 9.2 mph14.8 kmh 30.16 in1021.3 mb 0.00 in0.0 mm 0.00 in0.0 mm 0.00 in0.0 mm
11:55 AM 83.3°F28.5°C 51.2°F10.7°C 33% 2.7 mph WSW4.3 kmh WSW 6.9 mph11.1 kmh 30.16 in1021.3 mb 0.00 in0.0 mm 0.00 in0.0 mm 0.00 in0.0 mm
12:00 PM 84.0°F28.9°C 49.3°F9.6°C 30% 2.5 mph S4.0 kmh S 6.0 mph9.7 kmh 30.15 in1021.0 mb 0.00 in0.0 mm 0.00 in0.0 mm 0.00 in0.0 mm
12:05 PM 84.0°F28.9°C 50.2°F10.1°C 31% 2.7 mph W4.3 kmh W 6.9 mph11.1 kmh 30.15 in1021.0 mb 0.00 in0.0 mm 0.00 in0.0 mm 0.00 in0.0 mm
12:10 PM 84.2°F29.0°C 50.3°F10.2°C 31% 2.8 mph N4.5 kmh N 7.6 mph12.2 kmh 30.15 in1021.0 mb 0.00 in0.0 mm 0.00 in0.0 mm 0.00 in0.0 mm
12:20 PM 84.4°F29.1°C 49.6°F9.8°C 30% 3.2 mph NW5.1 kmh NW 7.6 mph12.2 kmh 30.15 in1021.0 mb 0.00 in0.0 mm 0.00 in0.0 mm 0.00 in0.0 mm
12:25 PM 84.2°F29.0°C 48.5°F9.2°C 29% 3.1 mph NW5.0 kmh NW 7.6 mph12.2 kmh 30.15 in1021.0 mb 0.00 in0.0 mm 0.00 in0.0 mm 0.00 in0.0 mm
12:30 PM 84.6°F29.2°C 49.8°F9.9°C 30% 3.4 mph NW5.5 kmh NW 7.6 mph12.2 kmh 30.15 in1021.0 mb 0.00 in0.0 mm 0.00 in0.0 mm 0.00 in0.0 mm
12:35 PM 85.3°F29.6°C 47.6°F8.7°C 27% 4.1 mph NW6.6 kmh NW 7.6 mph12.2 kmh 30.15 in1021.0 mb 0.00 in0.0 mm 0.00 in0.0 mm 0.00 in0.0 mm
12:40 PM 84.7°F29.3°C 47.1°F8.4°C 27% 5.1 mph N8.2 kmh N 10.7 mph17.2 kmh 30.15 in1021.0 mb 0.00 in0.0 mm 0.00 in0.0 mm 0.00 in0.0 mm
12:45 PM 84.7°F29.3°C 47.1°F8.4°C 27% 4.7 mph N7.6 kmh N 10.7 mph17.2 kmh 30.15 in1021.0 mb 0.00 in0.0 mm 0.00 in0.0 mm 0.00 in0.0 mm
12:55 PM 84.2°F29.0°C 47.6°F8.7°C 28% 5.1 mph N8.2 kmh N 11.4 mph18.3 kmh 30.14 in1020.7 mb 0.00 in0.0 mm 0.00 in0.0 mm 0.00 in0.0 mm
01:00 PM 85.3°F29.6°C 48.5°F9.2°C 28% 5.2 mph WNW8.4 kmh WNW 14.5 mph23.3 kmh 30.14 in1020.7 mb 0.00 in0.0 mm 0.00 in0.0 mm 0.00 in0.0 mm
01:05 PM 85.3°F29.6°C 48.5°F9.2°C 28% 5.0 mph SW8.0 kmh SW 14.5 mph23.3 kmh 30.14 in1020.7 mb 0.00 in0.0 mm 0.00 in0.0 mm 0.00 in0.0 mm
01:10 PM 85.5°F29.7°C 47.7°F8.7°C 27% 4.5 mph S7.2 kmh S 8.3 mph13.4 kmh 30.14 in1020.7 mb 0.00 in0.0 mm 0.00 in0.0 mm 0.00 in0.0 mm
01:15 PM 86.2°F30.1°C 47.3°F8.5°C 26% 4.5 mph SSW7.2 kmh SSW 9.2 mph14.8 kmh 30.14 in1020.7 mb 0.00 in0.0 mm 0.00 in0.0 mm 0.00 in0.0 mm
01:20 PM 86.5°F30.3°C 47.6°F8.7°C 26% 3.9 mph WSW6.3 kmh WSW 9.2 mph14.8 kmh 30.14 in1020.7 mb 0.00 in0.0 mm 0.00 in0.0 mm 0.00 in0.0 mm
01:25 PM 86.0°F30.0°C 47.2°F8.4°C 26% 4.4 mph NW7.1 kmh NW 13.0 mph20.9 kmh 30.14 in1020.7 mb 0.00 in0.0 mm 0.00 in0.0 mm 0.00 in0.0 mm
01:30 PM 85.3°F29.6°C 48.5°F9.2°C 28% 5.4 mph NNW8.7 kmh NNW 13.0 mph20.9 kmh 30.14 in1020.7 mb 0.00 in0.0 mm 0.00 in0.0 mm 0.00 in0.0 mm
01:40 PM 86.2°F30.1°C 48.3°F9.1°C 27% 5.0 mph WSW8.0 kmh WSW 13.0 mph20.9 kmh 30.14 in1020.7 mb 0.00 in0.0 mm 0.00 in0.0 mm 0.00 in0.0 mm
01:45 PM 86.0°F30.0°C 48.2°F9.0°C 27% 5.0 mph NW8.0 kmh NW 15.9 mph25.6 kmh 30.14 in1020.7 mb 0.00 in0.0 mm 0.00 in0.0 mm 0.00 in0.0 mm
01:50 PM 86.4°F30.2°C 46.4°F8.0°C 25% 5.7 mph NW9.2 kmh NW 15.9 mph25.6 kmh 30.13 in1020.3 mb 0.00 in0.0 mm 0.00 in0.0 mm 0.00 in0.0 mm
01:55 PM 87.1°F30.6°C 49.1°F9.5°C 27% 4.5 mph WSW7.2 kmh WSW 9.8 mph15.8 kmh 30.13 in1020.3 mb 0.00 in0.0 mm 0.00 in0.0 mm 0.00 in0.0 mm
02:00 PM 87.1°F30.6°C 49.1°F9.5°C 27% 4.3 mph NW6.9 kmh NW 8.3 mph13.4 kmh 30.13 in1020.3 mb 0.00 in0.0 mm 0.00 in0.0 mm 0.00 in0.0 mm
02:05 PM 86.5°F30.3°C 49.6°F9.8°C 28% 4.0 mph NW6.4 kmh NW 8.3 mph13.4 kmh 30.13 in1020.3 mb 0.00 in0.0 mm 0.00 in0.0 mm 0.00 in0.0 mm
02:10 PM 86.9°F30.5°C 48.9°F9.4°C 27% 4.7 mph NNW7.6 kmh NNW 13.0 mph20.9 kmh 30.13 in1020.3 mb 0.00 in0.0 mm 0.00 in0.0 mm 0.00 in0.0 mm
02:15 PM 87.4°F30.8°C 46.3°F7.9°C 24% 5.2 mph NNW8.4 kmh NNW 13.0 mph20.9 kmh 30.13 in1020.3 mb 0.00 in0.0 mm 0.00 in0.0 mm 0.00 in0.0 mm
02:20 PM 87.8°F31.0°C 45.4°F7.4°C 23% 4.4 mph WNW7.1 kmh WNW 9.2 mph14.8 kmh 30.13 in1020.3 mb 0.00 in0.0 mm 0.00 in0.0 mm 0.00 in0.0 mm
02:25 PM 87.8°F31.0°C 43.1°F6.2°C 21% 4.2 mph W6.8 kmh W 11.4 mph18.3 kmh 30.13 in1020.3 mb 0.00 in0.0 mm 0.00 in0.0 mm 0.00 in0.0 mm
02:30 PM 87.8°F31.0°C 43.1°F6.2°C 21% 3.7 mph WSW6.0 kmh WSW 11.4 mph18.3 kmh 30.12 in1020.0 mb 0.00 in0.0 mm 0.00 in0.0 mm 0.00 in0.0 mm
02:35 PM 88.5°F31.4°C 44.9°F7.2°C 22% 4.0 mph WSW6.4 kmh WSW 13.6 mph21.9 kmh 30.13 in1020.3 mb 0.00 in0.0 mm 0.00 in0.0 mm 0.00 in0.0 mm
02:40 PM 88.7°F31.5°C 45.0°F7.2°C 22% 4.4 mph WNW7.1 kmh WNW 13.6 mph21.9 kmh 30.12 in1020.0 mb 0.00 in0.0 mm 0.00 in0.0 mm 0.00 in0.0 mm
02:45 PM 88.3°F31.3°C 44.7°F7.1°C 22% 4.1 mph NNW6.6 kmh NNW 12.1 mph19.5 kmh 30.12 in1020.0 mb 0.00 in0.0 mm 0.00 in0.0 mm 0.00 in0.0 mm
02:50 PM 88.3°F31.3°C 44.7°F7.1°C 22% 4.9 mph W7.9 kmh W 15.2 mph24.5 kmh 30.12 in1020.0 mb 0.00 in0.0 mm 0.00 in0.0 mm 0.00 in0.0 mm
02:55 PM 88.5°F31.4°C 44.9°F7.2°C 22% 4.6 mph SW7.4 kmh SW 15.2 mph24.5 kmh 30.12 in1020.0 mb 0.00 in0.0 mm 0.00 in0.0 mm 0.00 in0.0 mm
03:00 PM 88.3°F31.3°C 44.7°F7.1°C 22% 4.8 mph WNW7.7 kmh WNW 16.8 mph27.0 kmh 30.12 in1020.0 mb 0.00 in0.0 mm 0.00 in0.0 mm 0.00 in0.0 mm
03:05 PM 88.3°F31.3°C 44.7°F7.1°C 22% 4.8 mph W7.7 kmh W 16.8 mph27.0 kmh 30.12 in1020.0 mb 0.00 in0.0 mm 0.00 in0.0 mm 0.00 in0.0 mm
03:10 PM 88.5°F31.4°C 44.9°F7.2°C 22% 3.4 mph SW5.5 kmh SW 6.9 mph11.1 kmh 30.12 in1020.0 mb 0.00 in0.0 mm 0.00 in0.0 mm 0.00 in0.0 mm
03:15 PM 89.2°F31.8°C 45.5°F7.5°C 22% 3.5 mph WSW5.6 kmh WSW 9.2 mph14.8 kmh 30.11 in1019.6 mb 0.00 in0.0 mm 0.00 in0.0 mm 0.00 in0.0 mm
03:20 PM 89.4°F31.9°C 45.6°F7.6°C 22% 4.0 mph WSW6.4 kmh WSW 9.2 mph14.8 kmh 30.11 in1019.6 mb 0.00 in0.0 mm 0.00 in0.0 mm 0.00 in0.0 mm
03:25 PM 90.0°F32.2°C 44.8°F7.1°C 21% 4.1 mph WSW6.6 kmh WSW 11.4 mph18.3 kmh 30.11 in1019.6 mb 0.00 in0.0 mm 0.00 in0.0 mm 0.00 in0.0 mm
03:30 PM 90.0°F32.2°C 43.6°F6.4°C 20% 4.2 mph NW6.8 kmh NW 11.4 mph18.3 kmh 30.11 in1019.6 mb 0.00 in0.0 mm 0.00 in0.0 mm 0.00 in0.0 mm
03:35 PM 90.0°F32.2°C 44.8°F7.1°C 21% 3.3 mph NW5.3 kmh NW 9.2 mph14.8 kmh 30.11 in1019.6 mb 0.00 in0.0 mm 0.00 in0.0 mm 0.00 in0.0 mm
03:40 PM 89.8°F32.1°C 44.7°F7.1°C 21% 3.4 mph WNW5.5 kmh WNW 12.1 mph19.5 kmh 30.11 in1019.6 mb 0.00 in0.0 mm 0.00 in0.0 mm 0.00 in0.0 mm
03:45 PM 89.6°F32.0°C 43.3°F6.3°C 20% 4.3 mph NW6.9 kmh NW 12.1 mph19.5 kmh 30.11 in1019.6 mb 0.00 in0.0 mm 0.00 in0.0 mm 0.00 in0.0 mm
03:50 PM 89.8°F32.1°C 43.4°F6.3°C 20% 4.7 mph WNW7.6 kmh WNW 12.1 mph19.5 kmh 30.11 in1019.6 mb 0.00 in0.0 mm 0.00 in0.0 mm 0.00 in0.0 mm
03:55 PM 90.0°F32.2°C 44.8°F7.1°C 21% 4.7 mph W7.6 kmh W 12.1 mph19.5 kmh 30.11 in1019.6 mb 0.00 in0.0 mm 0.00 in0.0 mm 0.00 in0.0 mm
04:00 PM 90.1°F32.3°C 43.7°F6.5°C 20% 4.1 mph WNW6.6 kmh WNW 9.8 mph15.8 kmh 30.11 in1019.6 mb 0.00 in0.0 mm 0.00 in0.0 mm 0.00 in0.0 mm
04:05 PM 90.0°F32.2°C 44.8°F7.1°C 21% 4.4 mph NW7.1 kmh NW 12.1 mph19.5 kmh 30.11 in1019.6 mb 0.00 in0.0 mm 0.00 in0.0 mm 0.00 in0.0 mm
04:10 PM 90.0°F32.2°C 43.6°F6.4°C 20% 4.9 mph NNW7.9 kmh NNW 12.1 mph19.5 kmh 30.11 in1019.6 mb 0.00 in0.0 mm 0.00 in0.0 mm 0.00 in0.0 mm
04:15 PM 89.8°F32.1°C 43.4°F6.3°C 20% 5.6 mph NW9.0 kmh NW 12.1 mph19.5 kmh 30.11 in1019.6 mb 0.00 in0.0 mm 0.00 in0.0 mm 0.00 in0.0 mm
04:20 PM 89.8°F32.1°C 44.7°F7.1°C 21% 5.4 mph NW8.7 kmh NW 12.1 mph19.5 kmh 30.10 in1019.3 mb 0.00 in0.0 mm 0.00 in0.0 mm 0.00 in0.0 mm
04:25 PM 89.8°F32.1°C 44.7°F7.1°C 21% 4.4 mph NNW7.1 kmh NNW 12.1 mph19.5 kmh 30.10 in1019.3 mb 0.00 in0.0 mm 0.00 in0.0 mm 0.00 in0.0 mm
04:30 PM 90.3°F32.4°C 45.1°F7.3°C 21% 4.2 mph NNW6.8 kmh NNW 10.7 mph17.2 kmh 30.10 in1019.3 mb 0.00 in0.0 mm 0.00 in0.0 mm 0.00 in0.0 mm
04:35 PM 90.3°F32.4°C 45.1°F7.3°C 21% 4.5 mph WNW7.2 kmh WNW 11.4 mph18.3 kmh 30.10 in1019.3 mb 0.00 in0.0 mm 0.00 in0.0 mm 0.00 in0.0 mm
04:40 PM 90.3°F32.4°C 45.1°F7.3°C 21% 4.8 mph W7.7 kmh W 11.4 mph18.3 kmh 30.09 in1019.0 mb 0.00 in0.0 mm 0.00 in0.0 mm 0.00 in0.0 mm
04:45 PM 90.0°F32.2°C 44.8°F7.1°C 21% 5.1 mph NNW8.2 kmh NNW 15.9 mph25.6 kmh 30.09 in1019.0 mb 0.00 in0.0 mm 0.00 in0.0 mm 0.00 in0.0 mm
04:50 PM 89.6°F32.0°C 44.5°F6.9°C 21% 5.8 mph NNW9.3 kmh NNW 15.9 mph25.6 kmh 30.10 in1019.3 mb 0.00 in0.0 mm 0.00 in0.0 mm 0.00 in0.0 mm
04:55 PM 89.4°F31.9°C 45.6°F7.6°C 22% 5.6 mph NW9.0 kmh NW 15.9 mph25.6 kmh 30.10 in1019.3 mb 0.00 in0.0 mm 0.00 in0.0 mm 0.00 in0.0 mm
05:00 PM 89.8°F32.1°C 45.9°F7.7°C 22% 3.5 mph NW5.6 kmh NW 9.8 mph15.8 kmh 30.09 in1019.0 mb 0.00 in0.0 mm 0.00 in0.0 mm 0.00 in0.0 mm
05:05 PM 89.8°F32.1°C 45.9°F7.7°C 22% 3.0 mph WNW4.8 kmh WNW 8.3 mph13.4 kmh 30.09 in1019.0 mb 0.00 in0.0 mm 0.00 in0.0 mm 0.00 in0.0 mm
05:10 PM 90.5°F32.5°C 45.3°F7.4°C 21% 3.7 mph W6.0 kmh W 6.9 mph11.1 kmh 30.09 in1019.0 mb 0.00 in0.0 mm 0.00 in0.0 mm 0.00 in0.0 mm
05:20 PM 89.2°F31.8°C 46.6°F8.1°C 23% 7.2 mph NNW11.6 kmh NNW 23.5 mph37.8 kmh 30.09 in1019.0 mb 0.00 in0.0 mm 0.00 in0.0 mm 0.00 in0.0 mm
05:25 PM 89.4°F31.9°C 45.6°F7.6°C 22% 6.2 mph NNW10.0 kmh NNW 23.5 mph37.8 kmh 30.09 in1019.0 mb 0.00 in0.0 mm 0.00 in0.0 mm 0.00 in0.0 mm
05:30 PM 89.8°F32.1°C 45.9°F7.7°C 22% 5.2 mph WNW8.4 kmh WNW 13.6 mph21.9 kmh 30.09 in1019.0 mb 0.00 in0.0 mm 0.00 in0.0 mm 0.00 in0.0 mm
05:35 PM 90.0°F32.2°C 46.1°F7.8°C 22% 4.5 mph NW7.2 kmh NW 13.6 mph21.9 kmh 30.09 in1019.0 mb 0.00 in0.0 mm 0.00 in0.0 mm 0.00 in0.0 mm
05:40 PM 89.6°F32.0°C 45.8°F7.7°C 22% 4.4 mph NW7.1 kmh NW 12.1 mph19.5 kmh 30.09 in1019.0 mb 0.00 in0.0 mm 0.00 in0.0 mm 0.00 in0.0 mm
05:45 PM 89.6°F32.0°C 45.8°F7.7°C 22% 4.9 mph NW7.9 kmh NW 12.1 mph19.5 kmh 30.09 in1019.0 mb 0.00 in0.0 mm 0.00 in0.0 mm 0.00 in0.0 mm
05:50 PM 89.6°F32.0°C 45.8°F7.7°C 22% 4.1 mph NW6.6 kmh NW 10.7 mph17.2 kmh 30.09 in1019.0 mb 0.00 in0.0 mm 0.00 in0.0 mm 0.00 in0.0 mm
05:55 PM 89.8°F32.1°C 45.9°F7.7°C 22% 3.8 mph NNW6.1 kmh NNW 12.1 mph19.5 kmh 30.09 in1019.0 mb 0.00 in0.0 mm 0.00 in0.0 mm 0.00 in0.0 mm
06:00 PM 89.6°F32.0°C 46.9°F8.3°C 23% 3.9 mph NW6.3 kmh NW 12.1 mph19.5 kmh 30.09 in1019.0 mb 0.00 in0.0 mm 0.00 in0.0 mm 0.00 in0.0 mm
06:05 PM 89.8°F32.1°C 47.1°F8.4°C 23% 3.6 mph W5.8 kmh W 7.6 mph12.2 kmh 30.09 in1019.0 mb 0.00 in0.0 mm 0.00 in0.0 mm 0.00 in0.0 mm
06:10 PM 89.6°F32.0°C 46.9°F8.3°C 23% 4.3 mph W6.9 kmh W 9.2 mph14.8 kmh 30.09 in1019.0 mb 0.00 in0.0 mm 0.00 in0.0 mm 0.00 in0.0 mm
06:15 PM 89.4°F31.9°C 47.9°F8.8°C 24% 4.4 mph WSW7.1 kmh WSW 9.8 mph15.8 kmh 30.09 in1019.0 mb 0.00 in0.0 mm 0.00 in0.0 mm 0.00 in0.0 mm
06:20 PM 89.2°F31.8°C 47.8°F8.8°C 24% 4.6 mph W7.4 kmh W 12.1 mph19.5 kmh 30.08 in1018.6 mb 0.00 in0.0 mm 0.00 in0.0 mm 0.00 in0.0 mm
06:25 PM 89.1°F31.7°C 47.6°F8.7°C 24% 4.3 mph W6.9 kmh W 12.1 mph19.5 kmh 30.09 in1019.0 mb 0.00 in0.0 mm 0.00 in0.0 mm 0.00 in0.0 mm
06:35 PM 89.2°F31.8°C 47.8°F8.8°C 24% 5.0 mph W8.0 kmh W 10.7 mph17.2 kmh 30.09 in1019.0 mb 0.00 in0.0 mm 0.00 in0.0 mm 0.00 in0.0 mm
06:40 PM 88.9°F31.6°C 47.5°F8.6°C 24% 5.2 mph W8.4 kmh W 10.7 mph17.2 kmh 30.09 in1019.0 mb 0.00 in0.0 mm 0.00 in0.0 mm 0.00 in0.0 mm
06:50 PM 88.5°F31.4°C 46.0°F7.8°C 23% 5.6 mph WNW9.0 kmh WNW 13.6 mph21.9 kmh 30.09 in1019.0 mb 0.00 in0.0 mm 0.00 in0.0 mm 0.00 in0.0 mm
06:55 PM 88.3°F31.3°C 47.0°F8.3°C 24% 5.2 mph NW8.4 kmh NW 13.0 mph20.9 kmh 30.09 in1019.0 mb 0.00 in0.0 mm 0.00 in0.0 mm 0.00 in0.0 mm
07:00 PM 88.3°F31.3°C 45.9°F7.7°C 23% 4.7 mph WNW7.6 kmh WNW 10.7 mph17.2 kmh 30.09 in1019.0 mb 0.00 in0.0 mm 0.00 in0.0 mm 0.00 in0.0 mm
07:05 PM 88.0°F31.1°C 45.6°F7.6°C 23% 5.2 mph WNW8.4 kmh WNW 11.4 mph18.3 kmh 30.09 in1019.0 mb 0.00 in0.0 mm 0.00 in0.0 mm 0.00 in0.0 mm
07:10 PM 87.8°F31.0°C 46.6°F8.1°C 24% 5.8 mph NW9.3 kmh NW 12.1 mph19.5 kmh 30.09 in1019.0 mb 0.00 in0.0 mm 0.00 in0.0 mm 0.00 in0.0 mm
07:15 PM 87.8°F31.0°C 46.6°F8.1°C 24% 4.8 mph NW7.7 kmh NW 12.1 mph19.5 kmh 30.09 in1019.0 mb 0.00 in0.0 mm 0.00 in0.0 mm 0.00 in0.0 mm
07:20 PM 87.8°F31.0°C 45.4°F7.4°C 23% 4.2 mph NW6.8 kmh NW 10.7 mph17.2 kmh 30.09 in1019.0 mb 0.00 in0.0 mm 0.00 in0.0 mm 0.00 in0.0 mm
07:25 PM 87.8°F31.0°C 45.4°F7.4°C 23% 4.9 mph NW7.9 kmh NW 10.7 mph17.2 kmh 30.09 in1019.0 mb 0.00 in0.0 mm 0.00 in0.0 mm 0.00 in0.0 mm
07:30 PM 87.8°F31.0°C 45.4°F7.4°C 23% 4.4 mph WNW7.1 kmh WNW 10.7 mph17.2 kmh 30.09 in1019.0 mb 0.00 in0.0 mm 0.00 in0.0 mm 0.00 in0.0 mm
07:35 PM 87.6°F30.9°C 46.4°F8.0°C 24% 4.4 mph WNW7.1 kmh WNW 9.2 mph14.8 kmh 30.09 in1019.0 mb 0.00 in0.0 mm 0.00 in0.0 mm 0.00 in0.0 mm
07:40 PM 87.4°F30.8°C 46.3°F7.9°C 24% 4.5 mph W7.2 kmh W 9.2 mph14.8 kmh 30.09 in1019.0 mb 0.00 in0.0 mm 0.00 in0.0 mm 0.00 in0.0 mm
07:45 PM 87.1°F30.6°C 46.0°F7.8°C 24% 5.2 mph W8.4 kmh W 11.4 mph18.3 kmh 30.09 in1019.0 mb 0.00 in0.0 mm 0.00 in0.0 mm 0.00 in0.0 mm
07:50 PM 86.7°F30.4°C 45.7°F7.6°C 24% 4.8 mph NW7.7 kmh NW 11.4 mph18.3 kmh 30.09 in1019.0 mb 0.00 in0.0 mm 0.00 in0.0 mm 0.00 in0.0 mm
07:55 PM 86.4°F30.2°C 45.4°F7.4°C 24% 4.0 mph NW6.4 kmh NW 11.4 mph18.3 kmh 30.09 in1019.0 mb 0.00 in0.0 mm 0.00 in0.0 mm 0.00 in0.0 mm
08:00 PM 86.0°F30.0°C 45.1°F7.3°C 24% 4.2 mph NW6.8 kmh NW 11.4 mph18.3 kmh 30.09 in1019.0 mb 0.00 in0.0 mm 0.00 in0.0 mm 0.00 in0.0 mm
08:05 PM 85.6°F29.8°C 45.8°F7.7°C 25% 4.3 mph NW6.9 kmh NW 9.2 mph14.8 kmh 30.09 in1019.0 mb 0.00 in0.0 mm 0.00 in0.0 mm 0.00 in0.0 mm
08:10 PM 85.3°F29.6°C 45.5°F7.5°C 25% 4.4 mph W7.1 kmh W 9.2 mph14.8 kmh 30.10 in1019.3 mb 0.00 in0.0 mm 0.00 in0.0 mm 0.00 in0.0 mm
08:15 PM 84.9°F29.4°C 45.2°F7.3°C 25% 4.0 mph WSW6.4 kmh WSW 9.2 mph14.8 kmh 30.10 in1019.3 mb 0.00 in0.0 mm 0.00 in0.0 mm 0.00 in0.0 mm
08:20 PM 84.7°F29.3°C 45.1°F7.3°C 25% 3.0 mph WSW4.8 kmh WSW 9.2 mph14.8 kmh 30.10 in1019.3 mb 0.00 in0.0 mm 0.00 in0.0 mm 0.00 in0.0 mm
08:25 PM 84.4°F29.1°C 44.8°F7.1°C 25% 2.7 mph WSW4.3 kmh WSW 7.6 mph12.2 kmh 30.10 in1019.3 mb 0.00 in0.0 mm 0.00 in0.0 mm 0.00 in0.0 mm
08:30 PM 84.0°F28.9°C 46.5°F8.1°C 27% 3.1 mph WSW5.0 kmh WSW 7.6 mph12.2 kmh 30.10 in1019.3 mb 0.00 in0.0 mm 0.00 in0.0 mm 0.00 in0.0 mm
08:35 PM 83.7°F28.7°C 46.2°F7.9°C 27% 3.2 mph WSW5.1 kmh WSW 7.6 mph12.2 kmh 30.10 in1019.3 mb 0.00 in0.0 mm 0.00 in0.0 mm 0.00 in0.0 mm
08:40 PM 83.3°F28.5°C 46.8°F8.2°C 28% 4.3 mph WSW6.9 kmh WSW 8.3 mph13.4 kmh 30.10 in1019.3 mb 0.00 in0.0 mm 0.00 in0.0 mm 0.00 in0.0 mm
08:45 PM 82.9°F28.3°C 46.5°F8.1°C 28% 5.1 mph WSW8.2 kmh WSW 8.3 mph13.4 kmh 30.10 in1019.3 mb 0.00 in0.0 mm 0.00 in0.0 mm 0.00 in0.0 mm
08:50 PM 82.8°F28.2°C 46.4°F8.0°C 28% 5.4 mph WSW8.7 kmh WSW 9.2 mph14.8 kmh 30.10 in1019.3 mb 0.00 in0.0 mm 0.00 in0.0 mm 0.00 in0.0 mm
08:55 PM 82.2°F27.9°C 42.9°F6.1°C 25% 5.7 mph WSW9.2 kmh WSW 9.8 mph15.8 kmh 30.10 in1019.3 mb 0.00 in0.0 mm 0.00 in0.0 mm 0.00 in0.0 mm
09:00 PM 82.2°F27.9°C 42.9°F6.1°C 25% 5.8 mph WSW9.3 kmh WSW 9.8 mph15.8 kmh 30.11 in1019.6 mb 0.00 in0.0 mm 0.00 in0.0 mm 0.00 in0.0 mm
09:05 PM 82.2°F27.9°C 42.9°F6.1°C 25% 6.4 mph WNW10.3 kmh WNW 9.2 mph14.8 kmh 30.11 in1019.6 mb 0.00 in0.0 mm 0.00 in0.0 mm 0.00 in0.0 mm
09:10 PM 82.2°F27.9°C 42.9°F6.1°C 25% 6.7 mph NW10.8 kmh NW 8.3 mph13.4 kmh 30.11 in1019.6 mb 0.00 in0.0 mm 0.00 in0.0 mm 0.00 in0.0 mm
09:15 PM 82.0°F27.8°C 43.8°F6.6°C 26% 6.0 mph W9.7 kmh W 9.2 mph14.8 kmh 30.11 in1019.6 mb 0.00 in0.0 mm 0.00 in0.0 mm 0.00 in0.0 mm
09:20 PM 82.0°F27.8°C 43.8°F6.6°C 26% 6.0 mph WSW9.7 kmh WSW 9.2 mph14.8 kmh 30.11 in1019.6 mb 0.00 in0.0 mm 0.00 in0.0 mm 0.00 in0.0 mm
09:25 PM 81.9°F27.7°C 43.7°F6.5°C 26% 6.1 mph SW9.8 kmh SW 9.8 mph15.8 kmh 30.11 in1019.6 mb 0.00 in0.0 mm 0.00 in0.0 mm 0.00 in0.0 mm
09:30 PM 81.9°F27.7°C 43.7°F6.5°C 26% 5.5 mph SW8.9 kmh SW 9.8 mph15.8 kmh 30.11 in1019.6 mb 0.00 in0.0 mm 0.00 in0.0 mm 0.00 in0.0 mm
09:35 PM 81.7°F27.6°C 43.5°F6.4°C 26% 5.3 mph WSW8.5 kmh WSW 8.3 mph13.4 kmh 30.12 in1020.0 mb 0.00 in0.0 mm 0.00 in0.0 mm 0.00 in0.0 mm
09:40 PM 81.7°F27.6°C 43.5°F6.4°C 26% 5.1 mph WSW8.2 kmh WSW 7.6 mph12.2 kmh 30.12 in1020.0 mb 0.00 in0.0 mm 0.00 in0.0 mm 0.00 in0.0 mm
09:45 PM 81.5°F27.5°C 43.4°F6.3°C 26% 5.1 mph SW8.2 kmh SW 8.3 mph13.4 kmh 30.12 in1020.0 mb 0.00 in0.0 mm 0.00 in0.0 mm 0.00 in0.0 mm
09:50 PM 81.7°F27.6°C 43.5°F6.4°C 26% 5.4 mph SW8.7 kmh SW 9.2 mph14.8 kmh 30.12 in1020.0 mb 0.00 in0.0 mm 0.00 in0.0 mm 0.00 in0.0 mm
09:55 PM 81.5°F27.5°C 43.4°F6.3°C 26% 5.6 mph WSW9.0 kmh WSW 9.2 mph14.8 kmh 30.12 in1020.0 mb 0.00 in0.0 mm 0.00 in0.0 mm 0.00 in0.0 mm
10:00 PM 81.5°F27.5°C 43.4°F6.3°C 26% 5.9 mph W9.5 kmh W 10.7 mph17.2 kmh 30.13 in1020.3 mb 0.00 in0.0 mm 0.00 in0.0 mm 0.00 in0.0 mm
10:05 PM 81.5°F27.5°C 45.3°F7.4°C 28% 5.4 mph W8.7 kmh W 10.7 mph17.2 kmh 30.13 in1020.3 mb 0.00 in0.0 mm 0.00 in0.0 mm 0.00 in0.0 mm
10:10 PM 81.3°F27.4°C 46.1°F7.8°C 29% 4.6 mph WSW7.4 kmh WSW 9.2 mph14.8 kmh 30.13 in1020.3 mb 0.00 in0.0 mm 0.00 in0.0 mm 0.00 in0.0 mm
10:15 PM 81.1°F27.3°C 47.7°F8.7°C 31% 5.1 mph W8.2 kmh W 9.8 mph15.8 kmh 30.13 in1020.3 mb 0.00 in0.0 mm 0.00 in0.0 mm 0.00 in0.0 mm
10:20 PM 80.8°F27.1°C 49.8°F9.9°C 34% 5.6 mph W9.0 kmh W 9.8 mph15.8 kmh 30.13 in1020.3 mb 0.00 in0.0 mm 0.00 in0.0 mm 0.00 in0.0 mm
10:25 PM 80.6°F27.0°C 51.2°F10.7°C 36% 4.9 mph W7.9 kmh W 9.8 mph15.8 kmh 30.13 in1020.3 mb 0.00 in0.0 mm 0.00 in0.0 mm 0.00 in0.0 mm
10:30 PM 80.2°F26.8°C 52.4°F11.3°C 38% 3.5 mph W5.6 kmh W 9.8 mph15.8 kmh 30.14 in1020.7 mb 0.00 in0.0 mm 0.00 in0.0 mm 0.00 in0.0 mm
10:35 PM 79.9°F26.6°C 52.8°F11.6°C 39% 3.4 mph SW5.5 kmh SW 7.6 mph12.2 kmh 30.14 in1020.7 mb 0.00 in0.0 mm 0.00 in0.0 mm 0.00 in0.0 mm
10:40 PM 80.1°F26.7°C 51.5°F10.8°C 37% 4.0 mph SW6.4 kmh SW 8.3 mph13.4 kmh 30.14 in1020.7 mb 0.00 in0.0 mm 0.00 in0.0 mm 0.00 in0.0 mm
10:45 PM 79.7°F26.5°C 50.4°F10.2°C 36% 4.4 mph SW7.1 kmh SW 9.8 mph15.8 kmh 30.14 in1020.7 mb 0.00 in0.0 mm 0.00 in0.0 mm 0.00 in0.0 mm
10:50 PM 79.5°F26.4°C 53.1°F11.7°C 40% 5.1 mph WSW8.2 kmh WSW 9.8 mph15.8 kmh 30.14 in1020.7 mb 0.00 in0.0 mm 0.00 in0.0 mm 0.00 in0.0 mm
10:55 PM 79.2°F26.2°C 54.1°F12.3°C 42% 6.0 mph WSW9.7 kmh WSW 9.8 mph15.8 kmh 30.14 in1020.7 mb 0.00 in0.0 mm 0.00 in0.0 mm 0.00 in0.0 mm
11:00 PM 79.0°F26.1°C 54.6°F12.6°C 43% 6.7 mph WSW10.8 kmh WSW 9.8 mph15.8 kmh 30.14 in1020.7 mb 0.00 in0.0 mm 0.00 in0.0 mm 0.00 in0.0 mm
11:05 PM 79.0°F26.1°C 54.6°F12.6°C 43% 6.4 mph SW10.3 kmh SW 9.8 mph15.8 kmh 30.14 in1020.7 mb 0.00 in0.0 mm 0.00 in0.0 mm 0.00 in0.0 mm
11:10 PM 78.6°F25.9°C 55.5°F13.1°C 45% 6.0 mph SW9.7 kmh SW 12.1 mph19.5 kmh 30.14 in1020.7 mb 0.00 in0.0 mm 0.00 in0.0 mm 0.00 in0.0 mm
11:15 PM 78.4°F25.8°C 55.4°F13.0°C 45% 5.1 mph WSW8.2 kmh WSW 12.1 mph19.5 kmh 30.14 in1020.7 mb 0.00 in0.0 mm 0.00 in0.0 mm 0.00 in0.0 mm
11:20 PM 78.3°F25.7°C 55.2°F12.9°C 45% 4.3 mph W6.9 kmh W 12.1 mph19.5 kmh 30.15 in1021.0 mb 0.00 in0.0 mm 0.00 in0.0 mm 0.00 in0.0 mm
11:25 PM 77.9°F25.5°C 54.9°F12.7°C 45% 4.4 mph WSW7.1 kmh WSW 12.1 mph19.5 kmh 30.15 in1021.0 mb 0.00 in0.0 mm 0.00 in0.0 mm 0.00 in0.0 mm
11:30 PM 77.9°F25.5°C 54.9°F12.7°C 45% 5.0 mph SW8.0 kmh SW 9.8 mph15.8 kmh 30.15 in1021.0 mb 0.00 in0.0 mm 0.00 in0.0 mm 0.00 in0.0 mm
11:35 PM 77.5°F25.3°C 54.6°F12.6°C 45% 5.6 mph WSW9.0 kmh WSW 9.8 mph15.8 kmh 30.14 in1020.7 mb 0.00 in0.0 mm 0.00 in0.0 mm 0.00 in0.0 mm
11:40 PM 77.5°F25.3°C 54.6°F12.6°C 45% 5.6 mph SW9.0 kmh SW 9.8 mph15.8 kmh 30.15 in1021.0 mb 0.00 in0.0 mm 0.00 in0.0 mm 0.00 in0.0 mm
11:45 PM 77.4°F25.2°C 55.0°F12.8°C 46% 5.1 mph WSW8.2 kmh WSW 8.3 mph13.4 kmh 30.15 in1021.0 mb 0.00 in0.0 mm 0.00 in0.0 mm 0.00 in0.0 mm
11:50 PM 77.2°F25.1°C 54.2°F12.3°C 45% 5.3 mph WSW8.5 kmh WSW 9.2 mph14.8 kmh 30.15 in1021.0 mb 0.00 in0.0 mm 0.00 in0.0 mm 0.00 in0.0 mm
11:55 PM 77.2°F25.1°C 54.8°F12.7°C 46% 5.4 mph SW8.7 kmh SW 9.2 mph14.8 kmh 30.14 in1020.7 mb 0.00 in0.0 mm 0.00 in0.0 mm 0.00 in0.0 mm